createdAt,value
2019-01-21T00:01:29.355Z,43.17
2019-01-21T00:03:58.901Z,44.10
2019-01-21T00:06:28.430Z,43.77
2019-01-21T00:08:57.845Z,41.40
2019-01-21T00:11:27.252Z,41.27
2019-01-21T00:13:56.812Z,39.20
2019-01-21T00:16:26.255Z,40.00
2019-01-21T00:18:55.873Z,39.05
2019-01-21T00:21:25.365Z,39.20
2019-01-21T00:23:54.812Z,38.65
2019-01-21T00:26:24.235Z,37.77
2019-01-21T00:28:54.065Z,40.03
2019-01-21T00:31:23.811Z,39.65
2019-01-21T00:33:53.814Z,41.25
2019-01-21T00:36:23.941Z,43.83
2019-01-21T00:38:53.870Z,44.25
2019-01-21T00:41:23.887Z,43.90
2019-01-21T00:43:53.988Z,43.17
2019-01-21T00:46:23.942Z,44.25
2019-01-21T00:48:53.814Z,42.60
2019-01-21T00:51:23.954Z,43.60
2019-01-21T00:53:54.083Z,40.90
2019-01-21T00:56:24.009Z,41.40
2019-01-21T00:58:54.131Z,39.03
2019-01-21T01:01:24.045Z,41.00
2019-01-21T01:03:54.021Z,41.77
2019-01-21T01:06:24.181Z,40.85
2019-01-21T01:08:54.003Z,42.50
2019-01-21T01:11:24.203Z,41.90
2019-01-21T01:13:54.319Z,42.62
2019-01-21T01:16:24.073Z,40.50
2019-01-21T01:18:54.090Z,42.60
2019-01-21T01:21:24.168Z,42.98
2019-01-21T01:23:54.568Z,44.33
2019-01-21T01:26:24.151Z,44.87
2019-01-21T01:28:54.208Z,42.58
2019-01-21T01:31:24.208Z,39.70
2019-01-21T01:33:54.111Z,40.30
2019-01-21T01:36:24.331Z,41.08
2019-01-21T01:38:54.092Z,38.67
2019-01-21T01:41:24.154Z,39.10
2019-01-21T01:43:54.238Z,40.47
2019-01-21T01:46:24.440Z,39.05
2019-01-21T01:48:54.110Z,39.18
2019-01-21T01:51:24.318Z,39.55
2019-01-21T01:53:54.096Z,41.65
2019-01-21T01:56:24.183Z,41.35
2019-01-21T01:58:54.334Z,40.93
2019-01-21T02:01:24.236Z,39.50
2019-01-21T02:03:54.162Z,39.85
2019-01-21T02:06:24.250Z,39.78
2019-01-21T02:08:54.361Z,39.98
2019-01-21T02:11:24.350Z,41.40
2019-01-21T02:13:54.422Z,41.85
2019-01-21T02:16:24.299Z,41.25
2019-01-21T02:18:54.161Z,39.93
2019-01-21T02:21:26.091Z,42.25
2019-01-21T02:24:01.832Z,40.80
2019-01-21T02:26:31.433Z,41.40
2019-01-21T02:29:05.022Z,39.47
2019-01-21T02:32:11.170Z,40.83
2019-01-21T02:35:30.604Z,38.97
2019-01-21T02:38:42.629Z,37.42
2019-01-21T02:41:37.010Z,39.83
2019-01-21T02:44:52.658Z,40.70
2019-01-21T02:47:47.787Z,40.10
2019-01-21T02:50:47.847Z,39.43
2019-01-21T02:53:42.753Z,39.27
2019-01-21T02:56:41.819Z,39.80
2019-01-21T02:59:48.205Z,38.70
2019-01-21T03:02:57.020Z,41.87
2019-01-21T03:05:58.345Z,41.53
2019-01-21T03:09:08.786Z,41.77
2019-01-21T03:12:08.676Z,40.77
2019-01-21T03:15:25.164Z,42.30
2019-01-21T03:18:40.206Z,41.20
2019-01-21T03:21:54.854Z,41.53
2019-01-21T03:25:01.303Z,42.80
2019-01-21T03:28:10.843Z,41.40
2019-01-21T03:31:29.839Z,41.77
2019-01-21T03:34:26.096Z,42.53
2019-01-21T03:37:34.999Z,41.70
2019-01-21T03:40:27.153Z,40.37
2019-01-21T03:43:29.099Z,40.93
2019-01-21T03:46:28.709Z,40.23
2019-01-21T03:49:08.052Z,38.80
2019-01-21T03:52:21.562Z,38.67
2019-01-21T03:55:00.098Z,42.03
2019-01-21T03:58:14.380Z,41.63
2019-01-21T04:00:53.216Z,42.93
2019-01-21T04:04:05.644Z,41.97
2019-01-21T04:07:02.515Z,42.03
2019-01-21T04:10:15.670Z,42.03
2019-01-21T04:13:14.788Z,40.93
2019-01-21T04:16:23.847Z,38.40
2019-01-21T04:19:33.317Z,39.17
2019-01-21T04:22:31.670Z,39.88
2019-01-21T04:25:36.713Z,38.95
2019-01-21T04:28:40.772Z,39.53
2019-01-21T04:31:38.643Z,40.57
2019-01-21T04:34:44.404Z,40.15
2019-01-21T04:37:43.154Z,44.70
2019-01-21T04:41:14.874Z,44.33
2019-01-21T04:44:37.059Z,41.85
2019-01-21T04:47:31.889Z,40.15
2019-01-21T04:50:45.699Z,42.08
2019-01-21T04:54:03.393Z,40.60
2019-01-21T04:57:32.057Z,40.20
2019-01-21T05:00:32.405Z,40.20
2019-01-21T05:03:55.775Z,39.58
2019-01-21T05:06:55.815Z,38.70
2019-01-21T05:10:04.509Z,38.97
2019-01-21T05:13:13.434Z,37.80
2019-01-21T05:16:18.854Z,38.90
2019-01-21T05:19:19.207Z,38.47
2019-01-21T05:22:33.172Z,39.17
2019-01-21T05:25:30.446Z,38.02
2019-01-21T05:28:35.218Z,37.93
2019-01-21T05:31:40.585Z,37.88
2019-01-21T05:34:51.028Z,37.58
2019-01-21T05:38:07.778Z,38.07
2019-01-21T05:41:19.064Z,36.87
2019-01-21T05:44:15.071Z,39.23
2019-01-21T05:47:17.627Z,36.87
2019-01-21T05:50:34.073Z,36.43
2019-01-21T05:53:46.898Z,36.27
2019-01-21T05:56:57.051Z,37.00
2019-01-21T06:00:02.941Z,37.57
2019-01-21T06:03:16.595Z,36.43
2019-01-21T06:06:26.432Z,35.37
2019-01-21T06:09:26.802Z,35.07
2019-01-21T06:12:40.052Z,34.63
2019-01-21T06:15:37.404Z,35.87
2019-01-21T06:18:57.706Z,34.43
2019-01-21T06:22:02.396Z,36.47
2019-01-21T06:25:21.963Z,35.98
2019-01-21T06:28:32.260Z,33.43
2019-01-21T06:31:39.116Z,35.15
2019-01-21T06:34:38.285Z,34.25
2019-01-21T06:37:33.837Z,36.15
2019-01-21T06:40:42.289Z,35.03
2019-01-21T06:44:14.300Z,34.73
2019-01-21T06:47:11.717Z,37.03
2019-01-21T06:50:18.279Z,35.07
2019-01-21T06:53:26.956Z,33.60
2019-01-21T06:56:24.870Z,34.37
2019-01-21T06:59:25.950Z,34.05
2019-01-21T07:02:45.428Z,34.33
2019-01-21T07:05:36.323Z,35.50
2019-01-21T07:08:32.137Z,34.87
2019-01-21T07:11:22.097Z,35.00
2019-01-21T07:14:14.871Z,34.93
2019-01-21T07:17:06.207Z,35.17
2019-01-21T07:20:19.520Z,34.83
2019-01-21T07:23:15.423Z,34.63
2019-01-21T07:26:23.247Z,34.53
2019-01-21T07:29:25.462Z,37.13
2019-01-21T07:32:39.508Z,36.35
2019-01-21T07:35:50.035Z,37.27
2019-01-21T07:39:04.601Z,34.70
2019-01-21T07:41:43.899Z,34.83
2019-01-21T07:45:05.351Z,36.53
2019-01-21T07:48:11.934Z,35.85
2019-01-21T07:51:34.709Z,37.35
2019-01-21T07:54:48.115Z,36.87
2019-01-21T07:57:52.914Z,36.73
2019-01-21T08:01:07.505Z,36.53
2019-01-21T08:04:36.270Z,35.35
2019-01-21T08:07:24.570Z,37.13
2019-01-21T08:10:33.512Z,37.98
2019-01-21T08:13:34.624Z,36.63
2019-01-21T08:16:46.923Z,36.55
2019-01-21T08:20:02.131Z,36.90
2019-01-21T08:23:30.826Z,35.85
2019-01-21T08:26:31.593Z,36.33
2019-01-21T08:29:40.650Z,36.40
2019-01-21T08:32:59.983Z,35.75
2019-01-21T08:36:02.283Z,35.77
2019-01-21T08:38:58.792Z,36.43
2019-01-21T08:42:10.882Z,35.87
2019-01-21T08:45:33.788Z,35.70
2019-01-21T08:48:54.262Z,34.65
2019-01-21T08:52:00.107Z,34.93
2019-01-21T08:54:53.359Z,37.17
2019-01-21T08:58:07.407Z,36.23
2019-01-21T09:01:06.668Z,35.77
2019-01-21T09:04:35.256Z,37.65
2019-01-21T09:07:32.587Z,35.65
2019-01-21T09:10:23.310Z,35.37
2019-01-21T09:13:52.216Z,37.00
2019-01-21T09:16:44.932Z,34.30
2019-01-21T09:19:56.250Z,33.97
2019-01-21T09:23:11.662Z,34.30
2019-01-21T09:26:27.177Z,34.35
2019-01-21T09:29:20.592Z,32.97
2019-01-21T09:32:39.033Z,34.00
2019-01-21T09:35:50.873Z,33.63
2019-01-21T09:38:48.322Z,32.63
2019-01-21T09:41:44.449Z,33.57
2019-01-21T09:44:26.426Z,35.07
2019-01-21T09:46:54.216Z,32.60
2019-01-21T09:49:23.888Z,32.00
2019-01-21T09:52:14.274Z,34.03
2019-01-21T09:54:46.163Z,32.70
2019-01-21T09:57:28.787Z,32.50
2019-01-21T10:00:00.946Z,33.02
2019-01-21T10:02:52.716Z,32.43
2019-01-21T10:05:24.297Z,31.33
2019-01-21T10:08:25.825Z,31.90
2019-01-21T10:11:30.895Z,31.43
2019-01-21T10:14:29.506Z,29.85
2019-01-21T10:17:40.150Z,29.13
2019-01-21T10:20:33.586Z,32.03
2019-01-21T10:23:55.644Z,31.77
2019-01-21T10:26:55.221Z,31.42
2019-01-21T10:30:06.875Z,29.53
2019-01-21T10:33:15.116Z,30.85
2019-01-21T10:36:27.121Z,30.73
2019-01-21T10:39:26.760Z,30.70
2019-01-21T10:42:39.844Z,29.97
2019-01-21T10:45:52.397Z,29.37
2019-01-21T10:49:00.338Z,29.77
2019-01-21T10:52:10.836Z,30.17
2019-01-21T10:54:54.234Z,29.30
2019-01-21T10:58:08.281Z,29.57
2019-01-21T11:01:32.610Z,28.93
2019-01-21T11:04:38.151Z,27.93
2019-01-21T11:08:03.450Z,28.75
2019-01-21T11:11:20.207Z,25.80
2019-01-21T11:14:27.579Z,23.60
2019-01-21T11:17:40.711Z,24.80
2019-01-21T11:20:52.239Z,25.50
2019-01-21T11:24:01.718Z,26.80
2019-01-21T11:27:10.334Z,27.17
2019-01-21T11:29:52.749Z,26.87
2019-01-21T11:33:18.595Z,29.17
2019-01-21T11:36:31.989Z,28.20
2019-01-21T11:39:16.467Z,27.87
2019-01-21T11:42:34.383Z,27.97
2019-01-21T11:45:48.378Z,27.97
2019-01-21T11:49:01.799Z,26.97
2019-01-21T11:52:22.180Z,26.27
2019-01-21T11:55:15.690Z,26.63
2019-01-21T11:58:37.933Z,26.27
2019-01-21T12:01:30.602Z,25.53
2019-01-21T12:04:37.750Z,25.52
2019-01-21T12:07:24.407Z,24.63
2019-01-21T12:10:22.227Z,25.40
2019-01-21T12:13:23.038Z,24.60
2019-01-21T12:16:33.355Z,25.23
2019-01-21T12:19:29.249Z,25.17
2019-01-21T12:22:54.599Z,23.17
2019-01-21T12:25:35.110Z,23.87
2019-01-21T12:28:44.900Z,24.20
2019-01-21T12:32:07.357Z,22.93
2019-01-21T12:35:11.536Z,24.40
2019-01-21T12:38:24.781Z,24.00
2019-01-21T12:41:21.756Z,22.77
2019-01-21T12:44:27.750Z,25.10
2019-01-21T12:47:20.477Z,23.60
2019-01-21T12:50:14.790Z,23.67
2019-01-21T12:53:03.484Z,25.00
2019-01-21T12:56:04.960Z,23.83
2019-01-21T12:59:08.765Z,23.47
2019-01-21T13:01:55.497Z,23.70
2019-01-21T13:04:41.797Z,24.25
2019-01-21T13:07:29.711Z,24.40
2019-01-21T13:10:29.960Z,24.43
2019-01-21T13:13:33.706Z,24.93
2019-01-21T13:16:24.541Z,24.47
2019-01-21T13:19:30.134Z,23.97
2019-01-21T13:22:26.773Z,24.57
2019-01-21T13:25:43.013Z,24.33
2019-01-21T13:28:36.643Z,24.17
2019-01-21T13:31:43.144Z,23.03
2019-01-21T13:34:53.167Z,25.17
2019-01-21T13:37:40.413Z,23.17
2019-01-21T13:40:35.729Z,24.03
2019-01-21T13:43:22.911Z,25.68
2019-01-21T13:46:42.500Z,25.13
2019-01-21T13:49:42.655Z,24.90
2019-01-21T13:52:43.950Z,26.60
2019-01-21T13:55:42.362Z,25.95
2019-01-21T13:58:52.546Z,24.70
2019-01-21T14:01:38.567Z,23.80
2019-01-21T14:04:55.141Z,24.63
2019-01-21T14:07:52.128Z,25.53
2019-01-21T14:11:26.651Z,26.03
2019-01-21T14:14:18.005Z,25.20
2019-01-21T14:17:01.013Z,24.87
2019-01-21T14:19:54.743Z,25.40
2019-01-21T14:22:46.119Z,25.00
2019-01-21T14:25:42.367Z,24.30
2019-01-21T14:29:07.679Z,25.30
2019-01-21T14:32:11.229Z,23.80
2019-01-21T14:35:22.311Z,24.60
2019-01-21T14:38:48.430Z,25.63
2019-01-21T14:41:56.265Z,22.67
2019-01-21T14:45:05.994Z,25.03
2019-01-21T14:48:31.513Z,26.37
2019-01-21T14:51:46.041Z,27.03
2019-01-21T14:54:30.688Z,25.80
2019-01-21T14:57:39.270Z,24.87
2019-01-21T15:00:49.622Z,25.17
2019-01-21T15:04:00.327Z,25.53
2019-01-21T15:07:17.995Z,27.52
2019-01-21T15:10:27.853Z,23.23
2019-01-21T15:13:41.372Z,26.33
2019-01-21T15:16:42.541Z,25.20
2019-01-21T15:19:54.411Z,25.67
2019-01-21T15:22:58.964Z,25.20
2019-01-21T15:25:57.083Z,26.67
2019-01-21T15:29:04.506Z,25.53
2019-01-21T15:31:53.654Z,26.20
2019-01-21T15:34:31.774Z,25.43
2019-01-21T15:37:25.081Z,25.60
2019-01-21T15:40:34.671Z,25.90
2019-01-21T15:43:31.202Z,25.75
2019-01-21T15:46:18.482Z,25.95
2019-01-21T15:49:47.058Z,26.12
2019-01-21T15:52:34.492Z,25.63
2019-01-21T15:55:29.974Z,26.75
2019-01-21T15:58:33.521Z,26.07
2019-01-21T16:01:38.693Z,26.20
2019-01-21T16:04:46.950Z,24.80
2019-01-21T16:07:44.921Z,24.77
2019-01-21T16:10:56.772Z,25.00
2019-01-21T16:13:42.959Z,25.07
2019-01-21T16:16:48.185Z,26.13
2019-01-21T16:19:40.598Z,24.97
2019-01-21T16:22:35.918Z,26.97
2019-01-21T16:25:55.545Z,26.35
2019-01-21T16:29:37.273Z,24.63
2019-01-21T16:32:14.153Z,24.27
2019-01-21T16:34:58.815Z,26.75
2019-01-21T16:38:14.701Z,25.87
2019-01-21T16:41:19.847Z,23.43
2019-01-21T16:43:52.871Z,24.80
2019-01-21T16:46:22.763Z,25.07
2019-01-21T16:48:52.390Z,25.10
2019-01-21T16:51:21.880Z,24.73
2019-01-21T16:53:51.263Z,25.50
2019-01-21T16:56:21.201Z,24.57
2019-01-21T16:58:50.685Z,24.17
2019-01-21T17:01:20.071Z,25.50
2019-01-21T17:03:49.605Z,24.67
2019-01-21T17:06:19.109Z,24.50
2019-01-21T17:08:48.997Z,25.13
2019-01-21T17:11:18.625Z,24.37
2019-01-21T17:13:48.374Z,23.63
2019-01-21T17:16:19.969Z,24.67
2019-01-21T17:18:49.168Z,24.45
2019-01-21T17:21:18.578Z,24.17
2019-01-21T17:23:47.986Z,24.77
2019-01-21T17:26:17.647Z,25.37
2019-01-21T17:28:47.192Z,25.33
2019-01-21T17:31:16.717Z,23.73
2019-01-21T17:33:46.440Z,25.62
2019-01-21T17:36:15.944Z,25.53
2019-01-21T17:38:45.338Z,23.53
2019-01-21T17:41:15.558Z,24.87
2019-01-21T17:43:44.969Z,25.87
2019-01-21T17:46:14.401Z,25.07
2019-01-21T17:48:43.958Z,24.13
2019-01-21T17:51:13.507Z,23.45
2019-01-21T17:53:43.168Z,27.50
2019-01-21T17:56:12.824Z,25.33
2019-01-21T17:58:42.321Z,24.60
2019-01-21T18:01:11.814Z,24.70
2019-01-21T18:03:41.716Z,24.43
2019-01-21T18:06:11.401Z,25.57
2019-01-21T18:08:40.927Z,25.60
2019-01-21T18:11:10.886Z,25.20
2019-01-21T18:13:40.356Z,26.13
2019-01-21T18:16:11.827Z,25.57
2019-01-21T18:18:43.302Z,25.62
2019-01-21T18:21:12.891Z,26.00
2019-01-21T18:23:43.366Z,24.27
2019-01-21T18:26:12.955Z,24.92
2019-01-21T18:28:42.394Z,26.33
2019-01-21T18:31:11.810Z,25.57
2019-01-21T18:33:41.308Z,25.97
2019-01-21T18:36:13.475Z,25.20
2019-01-21T18:38:44.680Z,27.50
2019-01-21T18:41:15.456Z,26.23
2019-01-21T18:43:46.854Z,25.37
2019-01-21T18:46:16.286Z,26.97
2019-01-21T18:48:47.009Z,26.30
2019-01-21T18:51:17.556Z,25.53
2019-01-21T18:53:48.196Z,27.20
2019-01-21T18:56:17.643Z,27.23
2019-01-21T18:58:48.129Z,27.50
2019-01-21T19:01:17.706Z,25.73
2019-01-21T19:03:47.240Z,24.70
2019-01-21T19:06:18.554Z,26.73
2019-01-21T19:08:49.577Z,27.47
2019-01-21T19:11:20.499Z,26.83
2019-01-21T19:13:50.846Z,26.63
2019-01-21T19:16:20.512Z,26.13
2019-01-21T19:18:49.933Z,27.33
2019-01-21T19:21:19.323Z,27.58
2019-01-21T19:23:50.666Z,26.93
2019-01-21T19:26:27.438Z,27.10
2019-01-21T19:28:58.120Z,27.07
2019-01-21T19:31:29.117Z,27.90
2019-01-21T19:33:58.614Z,26.63
2019-01-21T19:36:28.255Z,27.17
2019-01-21T19:38:57.772Z,27.67
2019-01-21T19:41:27.174Z,28.53
2019-01-21T19:43:57.183Z,28.43
2019-01-21T19:46:26.942Z,27.43
2019-01-21T19:48:56.861Z,28.80
2019-01-21T19:51:26.746Z,27.20
2019-01-21T19:53:57.169Z,27.85
2019-01-21T19:56:26.773Z,29.33
2019-01-21T19:58:56.707Z,26.97
2019-01-21T20:01:26.697Z,29.65
2019-01-21T20:03:57.011Z,25.95
2019-01-21T20:06:26.716Z,26.90
2019-01-21T20:08:57.095Z,27.87
2019-01-21T20:11:26.664Z,27.77
2019-01-21T20:13:56.714Z,27.73
2019-01-21T20:16:27.045Z,28.35
2019-01-21T20:18:56.710Z,27.90
2019-01-21T20:21:26.686Z,26.65
2019-01-21T20:23:56.755Z,28.23
2019-01-21T20:26:26.619Z,27.00
2019-01-21T20:28:57.790Z,26.37
2019-01-21T20:31:29.245Z,27.50
2019-01-21T20:33:58.714Z,27.00
2019-01-21T20:36:29.651Z,26.60
2019-01-21T20:38:59.192Z,28.07
2019-01-21T20:41:30.025Z,25.87
2019-01-21T20:44:00.882Z,27.07
2019-01-21T20:46:31.473Z,28.17
2019-01-21T20:49:00.962Z,28.40
2019-01-21T20:51:30.361Z,27.00
2019-01-21T20:53:59.968Z,27.97
2019-01-21T20:56:32.745Z,26.07
2019-01-21T20:59:02.143Z,25.17
2019-01-21T21:01:32.262Z,27.80
2019-01-21T21:04:01.857Z,26.50
2019-01-21T21:06:32.749Z,26.42
2019-01-21T21:09:02.531Z,25.47
2019-01-21T21:11:33.872Z,26.47
2019-01-21T21:14:03.346Z,26.62
2019-01-21T21:16:34.509Z,26.70
2019-01-21T21:19:04.629Z,28.87
2019-01-21T21:21:35.947Z,26.62
2019-01-21T21:24:05.826Z,27.70
2019-01-21T21:26:37.040Z,29.30
2019-01-21T21:29:06.523Z,27.27
2019-01-21T21:31:36.181Z,29.77
2019-01-21T21:34:08.188Z,31.17
2019-01-21T21:36:39.106Z,29.87
2019-01-21T21:39:10.476Z,32.00
2019-01-21T21:41:40.011Z,30.33
2019-01-21T21:44:09.726Z,31.57
2019-01-21T21:46:42.334Z,30.92
2019-01-21T21:49:11.997Z,31.67
2019-01-21T21:51:46.509Z,33.43
2019-01-21T21:54:16.823Z,32.20
2019-01-21T21:56:47.581Z,31.87
2019-01-21T21:59:17.268Z,32.03
2019-01-21T22:01:48.935Z,30.63
2019-01-21T22:04:18.519Z,32.23
2019-01-21T22:06:48.123Z,30.60
2019-01-21T22:09:19.755Z,31.83
2019-01-21T22:11:49.432Z,31.17
2019-01-21T22:14:18.936Z,31.20
2019-01-21T22:16:48.623Z,30.83
2019-01-21T22:19:18.171Z,31.23
2019-01-21T22:21:47.850Z,31.87
2019-01-21T22:24:18.346Z,33.10
2019-01-21T22:26:47.879Z,33.00
2019-01-21T22:29:17.231Z,31.83
2019-01-21T22:31:46.962Z,31.33
2019-01-21T22:34:18.248Z,33.00
2019-01-21T22:36:47.738Z,32.00
2019-01-21T22:39:17.331Z,31.53
2019-01-21T22:41:46.847Z,33.13
2019-01-21T22:44:16.458Z,32.20
2019-01-21T22:46:46.133Z,30.93
2019-01-21T22:49:15.610Z,33.00
2019-01-21T22:51:45.135Z,30.30
2019-01-21T22:54:14.993Z,29.67
2019-01-21T22:56:44.446Z,30.97
2019-01-21T22:59:13.850Z,34.13
2019-01-21T23:01:43.538Z,32.27
2019-01-21T23:04:13.373Z,31.25
2019-01-21T23:06:42.939Z,33.55
2019-01-21T23:09:12.665Z,29.90
2019-01-21T23:11:42.110Z,30.73
2019-01-21T23:14:11.961Z,33.92
2019-01-21T23:16:41.495Z,36.53
2019-01-21T23:19:11.136Z,33.80
2019-01-21T23:21:40.539Z,35.13
2019-01-21T23:24:10.446Z,32.90
2019-01-21T23:26:40.314Z,33.73
2019-01-21T23:29:10.213Z,33.07
2019-01-21T23:31:39.934Z,32.63
2019-01-21T23:34:09.342Z,31.83
2019-01-21T23:36:38.764Z,31.63
2019-01-21T23:39:09.440Z,32.17
2019-01-21T23:41:40.506Z,32.73
2019-01-21T23:44:12.673Z,31.67
2019-01-21T23:46:42.152Z,32.57
2019-01-21T23:49:12.219Z,32.42
2019-01-21T23:51:41.619Z,31.20
2019-01-21T23:54:11.387Z,31.45
2019-01-21T23:56:40.783Z,32.75
2019-01-21T23:59:10.194Z,32.83
